createdAt,value
2023-04-11T00:01:50.871Z,6.36
2023-04-11T00:08:22.491Z,6.12
2023-04-11T00:14:58.722Z,5.90
2023-04-11T00:20:49.586Z,5.86
2023-04-11T00:26:48.865Z,6.00
2023-04-11T00:32:46.529Z,6.08
2023-04-11T00:39:38.884Z,6.01
2023-04-11T00:46:32.430Z,5.91
2023-04-11T00:53:05.153Z,5.99
2023-04-11T00:58:33.952Z,6.02
2023-04-11T01:03:51.513Z,5.92
2023-04-11T01:09:26.806Z,5.72
2023-04-11T01:14:59.543Z,5.46
2023-04-11T01:20:21.604Z,5.23
2023-04-11T01:25:33.478Z,5.07
2023-04-11T01:31:00.382Z,4.89
2023-04-11T01:36:39.498Z,4.79
2023-04-11T01:42:04.448Z,4.68
2023-04-11T01:48:23.968Z,4.55
2023-04-11T01:54:02.038Z,4.29
2023-04-11T01:59:12.650Z,4.00
2023-04-11T02:04:29.409Z,3.89
2023-04-11T02:10:32.239Z,3.80
2023-04-11T02:16:07.935Z,3.74
2023-04-11T02:21:53.922Z,3.72
2023-04-11T02:27:23.162Z,3.75
2023-04-11T02:32:43.933Z,3.73
2023-04-11T02:38:06.400Z,3.70
2023-04-11T02:43:54.698Z,3.66
2023-04-11T02:50:26.582Z,3.72
2023-04-11T03:02:56.880Z,3.57
2023-04-11T03:09:02.529Z,3.56
2023-04-11T03:15:01.642Z,3.54
2023-04-11T03:20:14.113Z,3.49
2023-04-11T03:26:08.019Z,3.43
2023-04-11T03:32:59.723Z,3.33
2023-04-11T03:39:32.444Z,3.32
2023-04-11T03:45:54.234Z,3.07
2023-04-11T03:51:56.301Z,2.99
2023-04-11T03:57:38.917Z,2.89
2023-04-11T04:04:11.270Z,2.79
2023-04-11T04:10:13.969Z,2.85
2023-04-11T04:15:55.197Z,2.91
2023-04-11T04:21:37.598Z,2.97
2023-04-11T04:27:00.293Z,3.07
2023-04-11T04:32:25.675Z,3.14
2023-04-11T04:37:50.275Z,3.19
2023-04-11T04:43:18.048Z,3.29
2023-04-11T05:02:01.878Z,3.83
2023-04-11T05:07:19.184Z,3.91
2023-04-11T05:12:26.742Z,4.03
2023-04-11T05:18:21.120Z,4.11
2023-04-11T05:24:03.894Z,4.44
2023-04-11T05:29:31.162Z,5.05
2023-04-11T05:35:32.367Z,5.84
2023-04-11T05:41:51.649Z,6.29
2023-04-11T05:48:22.304Z,6.92
2023-04-11T05:53:45.794Z,7.40
2023-04-11T05:59:07.738Z,7.40
2023-04-11T06:04:25.655Z,7.34
2023-04-11T06:09:41.380Z,7.61
2023-04-11T06:15:40.622Z,7.66
2023-04-11T06:21:02.276Z,7.25
2023-04-11T06:26:52.358Z,7.16
2023-04-11T06:32:29.680Z,7.50
2023-04-11T06:38:53.256Z,8.03
2023-04-11T06:45:16.087Z,8.79
2023-04-11T06:51:29.983Z,9.06
2023-04-11T06:57:28.481Z,8.86
2023-04-11T07:03:45.985Z,9.55
2023-04-11T07:09:53.698Z,10.61
2023-04-11T07:15:23.673Z,11.14
2023-04-11T07:21:01.522Z,10.90
2023-04-11T07:26:51.322Z,10.58
2023-04-11T07:32:28.365Z,10.32
2023-04-11T07:38:00.053Z,10.24
2023-04-11T07:43:42.546Z,10.12
2023-04-11T07:50:05.044Z,10.09
2023-04-11T07:56:00.154Z,10.21
2023-04-11T08:01:21.511Z,10.28
2023-04-11T08:06:57.303Z,10.59
2023-04-11T08:12:17.637Z,11.30
2023-04-11T08:17:38.180Z,12.03
2023-04-11T08:23:10.913Z,12.46
2023-04-11T08:28:21.920Z,12.96
2023-04-11T08:33:57.742Z,13.41
2023-04-11T08:39:11.937Z,13.79
2023-04-11T08:44:43.281Z,13.95
2023-04-11T08:50:06.784Z,13.91
2023-04-11T08:55:32.629Z,13.86
2023-04-11T09:01:43.917Z,13.64
2023-04-11T09:07:34.414Z,13.36
2023-04-11T09:13:18.148Z,13.23
2023-04-11T09:19:03.695Z,13.05
2023-04-11T09:24:35.742Z,12.97
2023-04-11T09:30:00.702Z,13.07
2023-04-11T09:35:28.230Z,13.16
2023-04-11T09:41:09.379Z,13.38
2023-04-11T09:46:23.433Z,13.80
2023-04-11T09:51:56.335Z,14.01
2023-04-11T09:57:18.475Z,14.04
2023-04-11T10:02:38.209Z,14.26
2023-04-11T10:08:33.912Z,14.45
2023-04-11T10:14:05.374Z,14.60
2023-04-11T10:19:35.033Z,14.72
2023-04-11T10:25:19.891Z,14.94
2023-04-11T10:31:39.384Z,15.25
2023-04-11T10:37:55.265Z,15.75
2023-04-11T10:43:44.396Z,15.78
2023-04-11T10:50:16.706Z,15.56
2023-04-11T10:55:35.799Z,15.50
2023-04-11T11:01:21.122Z,15.58
2023-04-11T11:06:51.088Z,15.87
2023-04-11T11:12:29.657Z,15.93
2023-04-11T11:17:43.099Z,16.03
2023-04-11T11:23:56.028Z,16.11
2023-04-11T11:29:31.430Z,16.37
2023-04-11T11:34:38.488Z,16.50
2023-04-11T11:40:05.004Z,16.81
2023-04-11T11:45:57.153Z,17.52
2023-04-11T11:51:14.534Z,17.88
2023-04-11T11:56:17.400Z,17.23
2023-04-11T12:02:14.694Z,16.71
2023-04-11T12:07:57.996Z,16.28
2023-04-11T12:13:34.210Z,16.32
2023-04-11T12:18:57.789Z,16.46
2023-04-11T12:24:12.732Z,16.62
2023-04-11T12:29:41.681Z,16.81
2023-04-11T12:34:54.313Z,16.91
2023-04-11T12:40:11.914Z,16.80
2023-04-11T12:45:49.357Z,16.76
2023-04-11T12:51:10.430Z,16.61
2023-04-11T12:56:16.757Z,16.53
2023-04-11T13:01:18.686Z,16.27
2023-04-11T13:06:52.333Z,15.89
2023-04-11T13:12:07.176Z,15.58
2023-04-11T13:17:36.557Z,15.06
2023-04-11T13:23:00.281Z,14.77
2023-04-11T13:28:09.031Z,14.51
2023-04-11T13:34:10.722Z,14.42
2023-04-11T13:39:35.736Z,14.38
2023-04-11T13:45:00.559Z,14.33
2023-04-11T13:50:22.877Z,14.28
2023-04-11T13:55:41.271Z,14.22
2023-04-11T14:01:15.627Z,13.98
2023-04-11T14:06:42.787Z,13.83
2023-04-11T14:12:08.970Z,13.67
2023-04-11T14:18:18.215Z,13.54
2023-04-11T14:29:42.280Z,13.24
2023-04-11T14:35:20.257Z,12.80
2023-04-11T14:41:34.379Z,12.61
2023-04-11T14:48:47.950Z,12.18
2023-04-11T14:55:50.877Z,11.66
2023-04-11T15:02:54.757Z,11.22
2023-04-11T15:08:27.559Z,11.07
2023-04-11T15:13:41.809Z,10.85
2023-04-11T15:19:09.259Z,10.63
2023-04-11T15:24:20.403Z,10.35
2023-04-11T15:29:25.003Z,10.25
2023-04-11T15:35:18.093Z,10.09
2023-04-11T15:41:06.996Z,9.83
2023-04-11T15:46:11.490Z,9.64
2023-04-11T15:51:41.087Z,9.53
2023-04-11T15:57:17.764Z,9.48
2023-04-11T16:02:24.349Z,9.44
2023-04-11T16:08:08.220Z,9.36
2023-04-11T16:13:33.308Z,9.25
2023-04-11T16:19:06.034Z,9.21
2023-04-11T16:24:42.717Z,9.15
2023-04-11T16:30:25.750Z,9.01
2023-04-11T16:35:34.732Z,8.91
2023-04-11T16:41:37.256Z,8.80
2023-04-11T16:47:59.630Z,8.68
2023-04-11T16:53:16.871Z,8.61
2023-04-11T16:59:27.652Z,8.56
2023-04-11T17:06:14.873Z,8.46
2023-04-11T17:12:54.003Z,8.43
2023-04-11T17:18:54.395Z,8.39
2023-04-11T17:24:39.064Z,8.35
2023-04-11T17:31:00.808Z,8.30
2023-04-11T17:36:35.020Z,8.27
2023-04-11T17:42:48.290Z,8.17
2023-04-11T17:48:33.775Z,8.06
2023-04-11T17:54:43.347Z,7.94
2023-04-11T18:02:05.114Z,7.80
2023-04-11T18:08:15.026Z,7.64
2023-04-11T18:14:21.033Z,7.50
2023-04-11T18:19:58.648Z,7.40
2023-04-11T18:26:07.537Z,7.30
2023-04-11T18:33:11.977Z,7.25
2023-04-11T18:39:57.306Z,7.21
2023-04-11T18:46:57.394Z,7.20
2023-04-11T18:53:45.067Z,7.20
2023-04-11T18:59:39.032Z,7.15
2023-04-11T19:05:54.029Z,7.11
2023-04-11T19:18:49.808Z,7.29
2023-04-11T19:24:59.339Z,7.30
2023-04-11T19:31:26.490Z,7.23
2023-04-11T19:37:17.311Z,7.12
2023-04-11T19:42:23.937Z,6.94
2023-04-11T19:48:16.991Z,6.90
2023-04-11T19:54:03.720Z,6.90
2023-04-11T20:00:01.400Z,6.90
2023-04-11T20:05:50.361Z,6.82
2023-04-11T20:11:59.126Z,6.71
2023-04-11T20:18:24.909Z,6.66
2023-04-11T20:24:51.023Z,6.56
2023-04-11T20:31:34.690Z,6.43
2023-04-11T20:38:06.249Z,6.32
2023-04-11T20:44:28.146Z,6.35
2023-04-11T20:51:31.046Z,6.37
2023-04-11T20:58:09.005Z,6.30
2023-04-11T21:03:59.586Z,6.22
2023-04-11T21:09:43.655Z,6.17
2023-04-11T21:16:25.285Z,6.09
2023-04-11T21:23:07.120Z,6.01
2023-04-11T21:29:31.229Z,5.93
2023-04-11T21:35:19.587Z,5.85
2023-04-11T21:40:57.410Z,5.79
2023-04-11T21:46:31.542Z,5.76
2023-04-11T21:52:29.129Z,5.65
2023-04-11T21:58:03.139Z,5.56
2023-04-11T22:03:23.283Z,5.49
2023-04-11T22:09:33.964Z,5.48
2023-04-11T22:16:20.438Z,5.48
2023-04-11T22:23:24.735Z,5.47
2023-04-11T22:30:14.101Z,5.36
2023-04-11T22:36:14.080Z,5.23
2023-04-11T22:43:03.787Z,5.15
2023-04-11T22:49:44.154Z,5.07
2023-04-11T22:55:48.307Z,5.00
2023-04-11T23:02:15.185Z,4.96
2023-04-11T23:08:00.943Z,4.99
2023-04-11T23:13:40.642Z,5.05
2023-04-11T23:18:59.591Z,5.11
2023-04-11T23:24:33.843Z,5.16
2023-04-11T23:30:21.267Z,5.17
2023-04-11T23:35:52.226Z,5.21
2023-04-11T23:41:54.434Z,5.25
2023-04-11T23:47:47.267Z,5.33
2023-04-11T23:53:07.720Z,5.33
2023-04-11T23:58:22.542Z,5.37
